sensor_id;sensor_type;location;lat;lon;timestamp;P1;durP1;ratioP1;P2;durP2;ratioP2
13331;SDS011;6735;51.456;12.626;2023-07-13T00:01:11;3.57;;;2.27;;
13331;SDS011;6735;51.456;12.626;2023-07-13T00:03:38;3.17;;;1.77;;
13331;SDS011;6735;51.456;12.626;2023-07-13T00:06:05;3.07;;;1.97;;
13331;SDS011;6735;51.456;12.626;2023-07-13T00:08:31;2.30;;;1.93;;
13331;SDS011;6735;51.456;12.626;2023-07-13T00:10:58;3.80;;;1.67;;
13331;SDS011;6735;51.456;12.626;2023-07-13T00:13:23;2.30;;;1.70;;
13331;SDS011;6735;51.456;12.626;2023-07-13T00:15:49;2.73;;;1.93;;
13331;SDS011;6735;51.456;12.626;2023-07-13T00:18:14;2.27;;;2.07;;
13331;SDS011;6735;51.456;12.626;2023-07-13T00:20:40;2.27;;;1.90;;
13331;SDS011;6735;51.456;12.626;2023-07-13T00:23:06;3.13;;;1.90;;
13331;SDS011;6735;51.456;12.626;2023-07-13T00:25:32;3.53;;;2.17;;
13331;SDS011;6735;51.456;12.626;2023-07-13T00:27:57;2.50;;;1.70;;
13331;SDS011;6735;51.456;12.626;2023-07-13T00:30:23;2.90;;;1.70;;
13331;SDS011;6735;51.456;12.626;2023-07-13T00:32:48;2.90;;;1.80;;
13331;SDS011;6735;51.456;12.626;2023-07-13T00:35:15;2.03;;;1.83;;
13331;SDS011;6735;51.456;12.626;2023-07-13T00:37:41;2.33;;;1.60;;
13331;SDS011;6735;51.456;12.626;2023-07-13T00:40:07;5.30;;;2.10;;
13331;SDS011;6735;51.456;12.626;2023-07-13T00:42:33;3.23;;;1.80;;
13331;SDS011;6735;51.456;12.626;2023-07-13T00:47:36;2.23;;;2.00;;
13331;SDS011;6735;51.456;12.626;2023-07-13T00:50:02;1.70;;;1.60;;
13331;SDS011;6735;51.456;12.626;2023-07-13T00:52:31;3.33;;;2.00;;
13331;SDS011;6735;51.456;12.626;2023-07-13T00:54:57;2.10;;;1.60;;
13331;SDS011;6735;51.456;12.626;2023-07-13T00:57:23;2.67;;;2.03;;
13331;SDS011;6735;51.456;12.626;2023-07-13T00:59:51;3.20;;;1.93;;
13331;SDS011;6735;51.456;12.626;2023-07-13T01:02:19;2.73;;;1.93;;
13331;SDS011;6735;51.456;12.626;2023-07-13T01:04:44;1.83;;;1.70;;
13331;SDS011;6735;51.456;12.626;2023-07-13T01:07:10;2.40;;;2.20;;
13331;SDS011;6735;51.456;12.626;2023-07-13T01:09:37;4.10;;;2.57;;
13331;SDS011;6735;51.456;12.626;2023-07-13T01:12:03;3.43;;;1.97;;
13331;SDS011;6735;51.456;12.626;2023-07-13T01:14:29;6.53;;;2.50;;
13331;SDS011;6735;51.456;12.626;2023-07-13T01:16:54;2.53;;;2.03;;
13331;SDS011;6735;51.456;12.626;2023-07-13T01:19:31;2.00;;;1.80;;
13331;SDS011;6735;51.456;12.626;2023-07-13T01:22:15;3.40;;;2.27;;
13331;SDS011;6735;51.456;12.626;2023-07-13T01:24:44;3.23;;;1.90;;
13331;SDS011;6735;51.456;12.626;2023-07-13T01:27:12;3.43;;;1.70;;
13331;SDS011;6735;51.456;12.626;2023-07-13T01:29:40;2.40;;;1.80;;
13331;SDS011;6735;51.456;12.626;2023-07-13T01:32:15;3.97;;;1.70;;
13331;SDS011;6735;51.456;12.626;2023-07-13T01:34:47;2.87;;;1.87;;
13331;SDS011;6735;51.456;12.626;2023-07-13T01:37:13;2.30;;;1.93;;
13331;SDS011;6735;51.456;12.626;2023-07-13T01:39:38;3.80;;;2.17;;
13331;SDS011;6735;51.456;12.626;2023-07-13T01:42:04;2.97;;;2.20;;
13331;SDS011;6735;51.456;12.626;2023-07-13T01:44:30;5.57;;;2.43;;
13331;SDS011;6735;51.456;12.626;2023-07-13T01:46:55;2.20;;;2.00;;
13331;SDS011;6735;51.456;12.626;2023-07-13T01:49:21;4.87;;;2.33;;
13331;SDS011;6735;51.456;12.626;2023-07-13T01:51:47;4.10;;;1.90;;
13331;SDS011;6735;51.456;12.626;2023-07-13T01:54:12;6.17;;;2.33;;
13331;SDS011;6735;51.456;12.626;2023-07-13T01:56:38;4.10;;;1.93;;
13331;SDS011;6735;51.456;12.626;2023-07-13T01:59:04;5.10;;;2.33;;
13331;SDS011;6735;51.456;12.626;2023-07-13T02:01:30;2.03;;;1.87;;
13331;SDS011;6735;51.456;12.626;2023-07-13T02:03:55;2.87;;;2.20;;
13331;SDS011;6735;51.456;12.626;2023-07-13T02:06:21;2.97;;;2.57;;
13331;SDS011;6735;51.456;12.626;2023-07-13T02:08:46;2.77;;;2.47;;
13331;SDS011;6735;51.456;12.626;2023-07-13T02:11:12;4.67;;;2.43;;
13331;SDS011;6735;51.456;12.626;2023-07-13T02:13:37;2.20;;;2.10;;
13331;SDS011;6735;51.456;12.626;2023-07-13T02:16:03;6.10;;;2.30;;
13331;SDS011;6735;51.456;12.626;2023-07-13T02:18:29;2.47;;;2.00;;
13331;SDS011;6735;51.456;12.626;2023-07-13T02:20:57;3.23;;;2.10;;
13331;SDS011;6735;51.456;12.626;2023-07-13T02:23:23;1.90;;;1.80;;
13331;SDS011;6735;51.456;12.626;2023-07-13T02:25:48;2.43;;;2.10;;
13331;SDS011;6735;51.456;12.626;2023-07-13T02:28:14;4.60;;;2.00;;
13331;SDS011;6735;51.456;12.626;2023-07-13T02:30:39;3.53;;;2.10;;
13331;SDS011;6735;51.456;12.626;2023-07-13T02:33:05;2.53;;;1.97;;
13331;SDS011;6735;51.456;12.626;2023-07-13T02:35:31;2.57;;;2.23;;
13331;SDS011;6735;51.456;12.626;2023-07-13T02:37:56;3.87;;;2.60;;
13331;SDS011;6735;51.456;12.626;2023-07-13T02:40:22;2.93;;;2.10;;
13331;SDS011;6735;51.456;12.626;2023-07-13T02:42:47;2.90;;;2.70;;
13331;SDS011;6735;51.456;12.626;2023-07-13T02:45:13;4.07;;;2.50;;
13331;SDS011;6735;51.456;12.626;2023-07-13T02:47:39;4.97;;;2.83;;
13331;SDS011;6735;51.456;12.626;2023-07-13T02:50:06;2.40;;;2.20;;
13331;SDS011;6735;51.456;12.626;2023-07-13T02:52:32;2.50;;;2.30;;
13331;SDS011;6735;51.456;12.626;2023-07-13T02:54:57;2.47;;;2.27;;
13331;SDS011;6735;51.456;12.626;2023-07-13T02:57:23;2.43;;;2.23;;
13331;SDS011;6735;51.456;12.626;2023-07-13T02:59:49;2.50;;;2.30;;
13331;SDS011;6735;51.456;12.626;2023-07-13T03:02:14;2.90;;;2.60;;
13331;SDS011;6735;51.456;12.626;2023-07-13T03:04:40;3.73;;;2.30;;
13331;SDS011;6735;51.456;12.626;2023-07-13T03:07:05;2.27;;;2.10;;
13331;SDS011;6735;51.456;12.626;2023-07-13T03:09:32;3.10;;;2.33;;
13331;SDS011;6735;51.456;12.626;2023-07-13T03:11:58;5.10;;;2.67;;
13331;SDS011;6735;51.456;12.626;2023-07-13T03:14:24;2.80;;;2.20;;
13331;SDS011;6735;51.456;12.626;2023-07-13T03:16:50;3.20;;;2.10;;
13331;SDS011;6735;51.456;12.626;2023-07-13T03:19:16;6.33;;;2.90;;
13331;SDS011;6735;51.456;12.626;2023-07-13T03:21:42;2.90;;;2.03;;
13331;SDS011;6735;51.456;12.626;2023-07-13T03:24:08;3.77;;;2.37;;
13331;SDS011;6735;51.456;12.626;2023-07-13T03:26:33;5.73;;;2.80;;
13331;SDS011;6735;51.456;12.626;2023-07-13T03:28:59;2.33;;;2.20;;
13331;SDS011;6735;51.456;12.626;2023-07-13T03:31:25;4.23;;;2.23;;
13331;SDS011;6735;51.456;12.626;2023-07-13T03:33:56;2.83;;;2.27;;
13331;SDS011;6735;51.456;12.626;2023-07-13T03:36:24;3.17;;;2.40;;
13331;SDS011;6735;51.456;12.626;2023-07-13T03:38:52;4.00;;;2.60;;
13331;SDS011;6735;51.456;12.626;2023-07-13T03:41:19;3.70;;;2.80;;
13331;SDS011;6735;51.456;12.626;2023-07-13T03:43:45;3.57;;;2.50;;
13331;SDS011;6735;51.456;12.626;2023-07-13T03:46:13;3.77;;;2.70;;
13331;SDS011;6735;51.456;12.626;2023-07-13T03:48:38;6.33;;;2.57;;
13331;SDS011;6735;51.456;12.626;2023-07-13T03:51:05;3.27;;;2.97;;
13331;SDS011;6735;51.456;12.626;2023-07-13T03:53:31;4.30;;;2.90;;
13331;SDS011;6735;51.456;12.626;2023-07-13T03:55:56;3.97;;;2.70;;
13331;SDS011;6735;51.456;12.626;2023-07-13T03:58:23;3.30;;;2.80;;
13331;SDS011;6735;51.456;12.626;2023-07-13T04:00:49;3.00;;;2.80;;
13331;SDS011;6735;51.456;12.626;2023-07-13T04:03:15;4.53;;;3.33;;
13331;SDS011;6735;51.456;12.626;2023-07-13T04:05:41;4.43;;;2.93;;
13331;SDS011;6735;51.456;12.626;2023-07-13T04:08:06;4.97;;;3.13;;
13331;SDS011;6735;51.456;12.626;2023-07-13T04:10:32;4.00;;;3.20;;
13331;SDS011;6735;51.456;12.626;2023-07-13T04:12:58;3.23;;;2.93;;
13331;SDS011;6735;51.456;12.626;2023-07-13T04:15:23;3.63;;;3.33;;
13331;SDS011;6735;51.456;12.626;2023-07-13T04:17:49;3.43;;;3.13;;
13331;SDS011;6735;51.456;12.626;2023-07-13T04:20:14;6.20;;;3.33;;
13331;SDS011;6735;51.456;12.626;2023-07-13T04:22:40;4.13;;;3.20;;
13331;SDS011;6735;51.456;12.626;2023-07-13T04:25:05;4.20;;;3.40;;
13331;SDS011;6735;51.456;12.626;2023-07-13T04:27:31;3.60;;;3.10;;
13331;SDS011;6735;51.456;12.626;2023-07-13T04:29:57;4.53;;;3.33;;
13331;SDS011;6735;51.456;12.626;2023-07-13T04:32:22;5.63;;;3.00;;
13331;SDS011;6735;51.456;12.626;2023-07-13T04:34:48;5.23;;;3.53;;
13331;SDS011;6735;51.456;12.626;2023-07-13T04:37:18;6.83;;;3.23;;
13331;SDS011;6735;51.456;12.626;2023-07-13T04:39:45;3.80;;;3.37;;
13331;SDS011;6735;51.456;12.626;2023-07-13T04:42:10;4.20;;;3.17;;
13331;SDS011;6735;51.456;12.626;2023-07-13T04:44:35;5.67;;;3.27;;
13331;SDS011;6735;51.456;12.626;2023-07-13T04:47:01;3.40;;;2.83;;
13331;SDS011;6735;51.456;12.626;2023-07-13T04:49:26;3.50;;;2.63;;
13331;SDS011;6735;51.456;12.626;2023-07-13T04:51:52;4.30;;;3.00;;
13331;SDS011;6735;51.456;12.626;2023-07-13T04:54:19;4.07;;;3.20;;
13331;SDS011;6735;51.456;12.626;2023-07-13T04:56:46;3.33;;;2.90;;
13331;SDS011;6735;51.456;12.626;2023-07-13T04:59:11;3.50;;;3.00;;
13331;SDS011;6735;51.456;12.626;2023-07-13T05:01:36;4.23;;;2.60;;
13331;SDS011;6735;51.456;12.626;2023-07-13T05:04:02;3.00;;;2.70;;
13331;SDS011;6735;51.456;12.626;2023-07-13T05:06:28;3.10;;;2.80;;
13331;SDS011;6735;51.456;12.626;2023-07-13T05:08:53;3.93;;;2.73;;
13331;SDS011;6735;51.456;12.626;2023-07-13T05:11:19;6.33;;;3.10;;
13331;SDS011;6735;51.456;12.626;2023-07-13T05:13:44;6.57;;;2.67;;
13331;SDS011;6735;51.456;12.626;2023-07-13T05:16:13;4.33;;;2.50;;
13331;SDS011;6735;51.456;12.626;2023-07-13T05:18:38;2.70;;;2.50;;
13331;SDS011;6735;51.456;12.626;2023-07-13T05:21:05;4.30;;;2.93;;
13331;SDS011;6735;51.456;12.626;2023-07-13T05:23:33;2.30;;;2.10;;
13331;SDS011;6735;51.456;12.626;2023-07-13T05:25:59;4.83;;;2.43;;
13331;SDS011;6735;51.456;12.626;2023-07-13T05:28:26;4.80;;;2.43;;
13331;SDS011;6735;51.456;12.626;2023-07-13T05:30:52;4.80;;;2.40;;
13331;SDS011;6735;51.456;12.626;2023-07-13T05:33:19;3.53;;;2.43;;
13331;SDS011;6735;51.456;12.626;2023-07-13T05:35:45;9.33;;;2.73;;
13331;SDS011;6735;51.456;12.626;2023-07-13T05:38:11;6.67;;;3.03;;
13331;SDS011;6735;51.456;12.626;2023-07-13T05:40:37;3.27;;;2.17;;
13331;SDS011;6735;51.456;12.626;2023-07-13T05:43:02;2.60;;;1.93;;
13331;SDS011;6735;51.456;12.626;2023-07-13T05:45:28;2.20;;;1.90;;
13331;SDS011;6735;51.456;12.626;2023-07-13T05:47:54;3.47;;;2.20;;
13331;SDS011;6735;51.456;12.626;2023-07-13T05:50:19;2.80;;;1.87;;
13331;SDS011;6735;51.456;12.626;2023-07-13T05:52:45;2.50;;;1.80;;
13331;SDS011;6735;51.456;12.626;2023-07-13T05:55:10;4.70;;;1.67;;
13331;SDS011;6735;51.456;12.626;2023-07-13T05:57:36;2.35;;;1.55;;
13331;SDS011;6735;51.456;12.626;2023-07-13T06:00:01;3.53;;;1.80;;
13331;SDS011;6735;51.456;12.626;2023-07-13T06:02:27;2.67;;;1.75;;
13331;SDS011;6735;51.456;12.626;2023-07-13T06:04:53;5.50;;;2.60;;
13331;SDS011;6735;51.456;12.626;2023-07-13T06:07:18;2.53;;;1.88;;
13331;SDS011;6735;51.456;12.626;2023-07-13T06:09:44;4.15;;;2.00;;
13331;SDS011;6735;51.456;12.626;2023-07-13T06:12:09;3.55;;;1.67;;
13331;SDS011;6735;51.456;12.626;2023-07-13T06:14:35;1.70;;;1.60;;
13331;SDS011;6735;51.456;12.626;2023-07-13T06:17:00;1.90;;;1.80;;
13331;SDS011;6735;51.456;12.626;2023-07-13T06:19:26;3.20;;;1.83;;
13331;SDS011;6735;51.456;12.626;2023-07-13T06:21:51;3.42;;;2.00;;
13331;SDS011;6735;51.456;12.626;2023-07-13T06:24:17;3.63;;;2.37;;
13331;SDS011;6735;51.456;12.626;2023-07-13T06:26:42;2.88;;;2.10;;
13331;SDS011;6735;51.456;12.626;2023-07-13T06:29:08;2.75;;;1.83;;
13331;SDS011;6735;51.456;12.626;2023-07-13T06:31:33;2.58;;;1.90;;
13331;SDS011;6735;51.456;12.626;2023-07-13T06:33:59;3.33;;;1.80;;
13331;SDS011;6735;51.456;12.626;2023-07-13T06:36:24;3.40;;;2.03;;
13331;SDS011;6735;51.456;12.626;2023-07-13T06:38:50;4.47;;;2.33;;
13331;SDS011;6735;51.456;12.626;2023-07-13T06:41:16;3.27;;;2.10;;
13331;SDS011;6735;51.456;12.626;2023-07-13T06:43:41;2.90;;;2.00;;
13331;SDS011;6735;51.456;12.626;2023-07-13T06:46:07;4.50;;;2.17;;
13331;SDS011;6735;51.456;12.626;2023-07-13T06:48:32;2.27;;;1.80;;
13331;SDS011;6735;51.456;12.626;2023-07-13T06:50:58;3.57;;;1.97;;
13331;SDS011;6735;51.456;12.626;2023-07-13T06:53:24;3.93;;;1.93;;
13331;SDS011;6735;51.456;12.626;2023-07-13T06:55:49;3.07;;;2.03;;
13331;SDS011;6735;51.456;12.626;2023-07-13T06:58:16;2.80;;;1.70;;
13331;SDS011;6735;51.456;12.626;2023-07-13T07:00:43;2.87;;;1.87;;
13331;SDS011;6735;51.456;12.626;2023-07-13T07:03:08;4.17;;;1.77;;
13331;SDS011;6735;51.456;12.626;2023-07-13T07:05:34;1.63;;;1.30;;
13331;SDS011;6735;51.456;12.626;2023-07-13T07:07:59;3.58;;;1.77;;
13331;SDS011;6735;51.456;12.626;2023-07-13T07:10:25;3.28;;;1.75;;
13331;SDS011;6735;51.456;12.626;2023-07-13T07:12:51;1.92;;;1.45;;
13331;SDS011;6735;51.456;12.626;2023-07-13T07:15:17;1.80;;;1.48;;
13331;SDS011;6735;51.456;12.626;2023-07-13T07:17:43;4.35;;;1.65;;
13331;SDS011;6735;51.456;12.626;2023-07-13T07:20:08;2.78;;;1.45;;
13331;SDS011;6735;51.456;12.626;2023-07-13T07:22:35;5.03;;;1.60;;
13331;SDS011;6735;51.456;12.626;2023-07-13T07:25:00;2.97;;;1.50;;
13331;SDS011;6735;51.456;12.626;2023-07-13T07:27:26;4.50;;;1.60;;
13331;SDS011;6735;51.456;12.626;2023-07-13T07:29:52;2.37;;;1.97;;
13331;SDS011;6735;51.456;12.626;2023-07-13T07:32:18;2.33;;;1.40;;
13331;SDS011;6735;51.456;12.626;2023-07-13T07:34:44;2.77;;;1.67;;
13331;SDS011;6735;51.456;12.626;2023-07-13T07:37:10;3.37;;;1.57;;
13331;SDS011;6735;51.456;12.626;2023-07-13T07:39:37;3.43;;;2.17;;
13331;SDS011;6735;51.456;12.626;2023-07-13T07:42:03;3.73;;;2.20;;
13331;SDS011;6735;51.456;12.626;2023-07-13T07:44:30;3.50;;;2.10;;
13331;SDS011;6735;51.456;12.626;2023-07-13T07:46:56;2.77;;;1.80;;
13331;SDS011;6735;51.456;12.626;2023-07-13T07:49:21;3.60;;;1.60;;
13331;SDS011;6735;51.456;12.626;2023-07-13T07:51:47;2.60;;;1.40;;
13331;SDS011;6735;51.456;12.626;2023-07-13T07:54:13;1.80;;;1.60;;
13331;SDS011;6735;51.456;12.626;2023-07-13T07:56:39;2.70;;;1.60;;
13331;SDS011;6735;51.456;12.626;2023-07-13T07:59:05;2.73;;;1.90;;
13331;SDS011;6735;51.456;12.626;2023-07-13T08:01:30;2.10;;;1.63;;
13331;SDS011;6735;51.456;12.626;2023-07-13T08:03:56;3.73;;;1.87;;
13331;SDS011;6735;51.456;12.626;2023-07-13T08:06:21;4.10;;;1.57;;
13331;SDS011;6735;51.456;12.626;2023-07-13T08:08:48;4.80;;;2.10;;
13331;SDS011;6735;51.456;12.626;2023-07-13T08:11:13;3.47;;;1.80;;
13331;SDS011;6735;51.456;12.626;2023-07-13T08:13:39;1.77;;;1.50;;
13331;SDS011;6735;51.456;12.626;2023-07-13T08:16:05;3.77;;;1.50;;
13331;SDS011;6735;51.456;12.626;2023-07-13T08:18:31;3.67;;;1.73;;
13331;SDS011;6735;51.456;12.626;2023-07-13T08:20:57;3.70;;;1.70;;
13331;SDS011;6735;51.456;12.626;2023-07-13T08:23:23;4.20;;;1.93;;
13331;SDS011;6735;51.456;12.626;2023-07-13T08:25:53;2.70;;;1.70;;
13331;SDS011;6735;51.456;12.626;2023-07-13T08:28:20;2.27;;;1.87;;
13331;SDS011;6735;51.456;12.626;2023-07-13T08:30:46;3.10;;;1.50;;
13331;SDS011;6735;51.456;12.626;2023-07-13T08:33:14;5.23;;;2.23;;
13331;SDS011;6735;51.456;12.626;2023-07-13T08:35:45;2.13;;;1.47;;
13331;SDS011;6735;51.456;12.626;2023-07-13T08:38:11;4.10;;;1.73;;
13331;SDS011;6735;51.456;12.626;2023-07-13T08:40:37;5.00;;;1.57;;
13331;SDS011;6735;51.456;12.626;2023-07-13T08:43:04;3.97;;;1.73;;
13331;SDS011;6735;51.456;12.626;2023-07-13T08:45:32;3.13;;;1.57;;
13331;SDS011;6735;51.456;12.626;2023-07-13T08:48:13;4.57;;;1.77;;
13331;SDS011;6735;51.456;12.626;2023-07-13T08:50:58;4.13;;;1.93;;
13331;SDS011;6735;51.456;12.626;2023-07-13T08:53:38;4.50;;;1.63;;
13331;SDS011;6735;51.456;12.626;2023-07-13T08:56:11;3.37;;;1.80;;
13331;SDS011;6735;51.456;12.626;2023-07-13T08:58:43;4.50;;;1.63;;
13331;SDS011;6735;51.456;12.626;2023-07-13T09:01:19;3.30;;;1.60;;
13331;SDS011;6735;51.456;12.626;2023-07-13T09:03:57;3.13;;;1.57;;
13331;SDS011;6735;51.456;12.626;2023-07-13T09:06:39;4.10;;;1.80;;
13331;SDS011;6735;51.456;12.626;2023-07-13T09:17:54;4.17;;;1.97;;
13331;SDS011;6735;51.456;12.626;2023-07-13T09:20:29;3.93;;;1.60;;
13331;SDS011;6735;51.456;12.626;2023-07-13T09:22:59;5.30;;;2.20;;
13331;SDS011;6735;51.456;12.626;2023-07-13T09:25:32;3.20;;;1.73;;
13331;SDS011;6735;51.456;12.626;2023-07-13T09:28:12;4.95;;;1.77;;
13331;SDS011;6735;51.456;12.626;2023-07-13T09:33:16;3.60;;;1.90;;
13331;SDS011;6735;51.456;12.626;2023-07-13T09:35:42;5.72;;;1.77;;
13331;SDS011;6735;51.456;12.626;2023-07-13T09:38:11;2.30;;;1.50;;
13331;SDS011;6735;51.456;12.626;2023-07-13T09:40:40;5.00;;;1.67;;
13331;SDS011;6735;51.456;12.626;2023-07-13T09:43:08;4.35;;;1.90;;
13331;SDS011;6735;51.456;12.626;2023-07-13T09:45:38;2.27;;;1.80;;
13331;SDS011;6735;51.456;12.626;2023-07-13T09:48:13;3.43;;;1.77;;
13331;SDS011;6735;51.456;12.626;2023-07-13T09:50:40;3.57;;;1.50;;
13331;SDS011;6735;51.456;12.626;2023-07-13T09:53:17;5.13;;;1.70;;
13331;SDS011;6735;51.456;12.626;2023-07-13T09:55:47;3.80;;;1.70;;
13331;SDS011;6735;51.456;12.626;2023-07-13T09:58:15;3.37;;;1.80;;
13331;SDS011;6735;51.456;12.626;2023-07-13T10:00:44;3.80;;;1.70;;
13331;SDS011;6735;51.456;12.626;2023-07-13T10:03:31;3.97;;;1.37;;
13331;SDS011;6735;51.456;12.626;2023-07-13T10:06:18;5.80;;;2.10;;
13331;SDS011;6735;51.456;12.626;2023-07-13T10:08:47;3.43;;;2.00;;
13331;SDS011;6735;51.456;12.626;2023-07-13T10:11:23;3.10;;;1.80;;
13331;SDS011;6735;51.456;12.626;2023-07-13T10:14:02;3.00;;;1.80;;
13331;SDS011;6735;51.456;12.626;2023-07-13T10:16:36;2.53;;;1.70;;
13331;SDS011;6735;51.456;12.626;2023-07-13T10:19:06;2.67;;;1.67;;
13331;SDS011;6735;51.456;12.626;2023-07-13T10:21:52;2.07;;;1.50;;
13331;SDS011;6735;51.456;12.626;2023-07-13T10:24:21;2.10;;;1.70;;
13331;SDS011;6735;51.456;12.626;2023-07-13T10:26:53;7.10;;;1.77;;
13331;SDS011;6735;51.456;12.626;2023-07-13T10:29:23;3.00;;;1.50;;
13331;SDS011;6735;51.456;12.626;2023-07-13T10:31:51;4.03;;;1.40;;
13331;SDS011;6735;51.456;12.626;2023-07-13T10:34:17;2.60;;;1.63;;
13331;SDS011;6735;51.456;12.626;2023-07-13T10:36:46;3.10;;;1.80;;
13331;SDS011;6735;51.456;12.626;2023-07-13T10:39:17;3.27;;;1.80;;
13331;SDS011;6735;51.456;12.626;2023-07-13T10:41:46;4.70;;;2.17;;
13331;SDS011;6735;51.456;12.626;2023-07-13T10:44:17;2.67;;;1.90;;
13331;SDS011;6735;51.456;12.626;2023-07-13T10:46:46;3.23;;;2.20;;
13331;SDS011;6735;51.456;12.626;2023-07-13T10:49:13;4.90;;;1.70;;
13331;SDS011;6735;51.456;12.626;2023-07-13T10:51:39;2.33;;;1.40;;
13331;SDS011;6735;51.456;12.626;2023-07-13T10:54:22;2.55;;;1.38;;
13331;SDS011;6735;51.456;12.626;2023-07-13T10:59:37;1.58;;;1.40;;
13331;SDS011;6735;51.456;12.626;2023-07-13T11:04:45;2.08;;;1.40;;
13331;SDS011;6735;51.456;12.626;2023-07-13T11:07:23;5.82;;;1.60;;
13331;SDS011;6735;51.456;12.626;2023-07-13T11:09:58;2.33;;;1.20;;
13331;SDS011;6735;51.456;12.626;2023-07-13T11:12:48;3.20;;;1.60;;
13331;SDS011;6735;51.456;12.626;2023-07-13T11:15:30;3.40;;;1.80;;
13331;SDS011;6735;51.456;12.626;2023-07-13T11:18:19;9.75;;;1.77;;
13331;SDS011;6735;51.456;12.626;2023-07-13T11:20:47;2.65;;;1.63;;
13331;SDS011;6735;51.456;12.626;2023-07-13T11:25:41;1.20;;;1.10;;
13331;SDS011;6735;51.456;12.626;2023-07-13T11:30:40;1.67;;;1.40;;
13331;SDS011;6735;51.456;12.626;2023-07-13T11:33:20;2.97;;;1.30;;
13331;SDS011;6735;51.456;12.626;2023-07-13T11:35:59;2.50;;;1.38;;
13331;SDS011;6735;51.456;12.626;2023-07-13T11:38:37;2.10;;;1.48;;
13331;SDS011;6735;51.456;12.626;2023-07-13T11:43:35;1.70;;;1.30;;
13331;SDS011;6735;51.456;12.626;2023-07-13T11:48:47;3.13;;;1.77;;
13331;SDS011;6735;51.456;12.626;2023-07-13T11:51:17;1.92;;;1.50;;
13331;SDS011;6735;51.456;12.626;2023-07-13T11:53:48;3.33;;;1.55;;
13331;SDS011;6735;51.456;12.626;2023-07-13T11:56:15;2.13;;;1.33;;
13331;SDS011;6735;51.456;12.626;2023-07-13T11:58:41;5.60;;;1.35;;
13331;SDS011;6735;51.456;12.626;2023-07-13T12:01:09;2.00;;;1.50;;
13331;SDS011;6735;51.456;12.626;2023-07-13T12:03:43;2.05;;;1.52;;
13331;SDS011;6735;51.456;12.626;2023-07-13T12:06:27;1.73;;;1.02;;
13331;SDS011;6735;51.456;12.626;2023-07-13T12:08:59;4.18;;;1.77;;
13331;SDS011;6735;51.456;12.626;2023-07-13T12:11:26;5.07;;;1.80;;
13331;SDS011;6735;51.456;12.626;2023-07-13T12:13:52;1.90;;;1.30;;
13331;SDS011;6735;51.456;12.626;2023-07-13T12:16:29;2.05;;;1.52;;
13331;SDS011;6735;51.456;12.626;2023-07-13T12:18:57;2.15;;;1.52;;
13331;SDS011;6735;51.456;12.626;2023-07-13T12:21:32;1.80;;;1.48;;
13331;SDS011;6735;51.456;12.626;2023-07-13T12:23:59;1.55;;;1.35;;
13331;SDS011;6735;51.456;12.626;2023-07-13T12:26:27;4.75;;;1.50;;
13331;SDS011;6735;51.456;12.626;2023-07-13T12:28:54;2.38;;;1.45;;
13331;SDS011;6735;51.456;12.626;2023-07-13T12:31:26;3.45;;;1.50;;
13331;SDS011;6735;51.456;12.626;2023-07-13T12:34:10;3.50;;;1.90;;
13331;SDS011;6735;51.456;12.626;2023-07-13T12:36:38;2.83;;;1.33;;
13331;SDS011;6735;51.456;12.626;2023-07-13T12:39:15;2.88;;;1.70;;
13331;SDS011;6735;51.456;12.626;2023-07-13T12:41:49;1.95;;;1.20;;
13331;SDS011;6735;51.456;12.626;2023-07-13T12:44:29;2.08;;;1.08;;
13331;SDS011;6735;51.456;12.626;2023-07-13T12:47:06;2.45;;;1.27;;
13331;SDS011;6735;51.456;12.626;2023-07-13T12:49:39;1.45;;;1.10;;
13331;SDS011;6735;51.456;12.626;2023-07-13T12:52:12;2.97;;;1.45;;
13331;SDS011;6735;51.456;12.626;2023-07-13T12:54:40;2.97;;;1.33;;
13331;SDS011;6735;51.456;12.626;2023-07-13T12:57:07;2.47;;;1.45;;
13331;SDS011;6735;51.456;12.626;2023-07-13T12:59:41;1.88;;;1.20;;
13331;SDS011;6735;51.456;12.626;2023-07-13T13:02:29;1.50;;;1.40;;
13331;SDS011;6735;51.456;12.626;2023-07-13T13:04:57;3.28;;;1.40;;
13331;SDS011;6735;51.456;12.626;2023-07-13T13:07:23;3.72;;;1.60;;
13331;SDS011;6735;51.456;12.626;2023-07-13T13:09:49;3.08;;;1.35;;
13331;SDS011;6735;51.456;12.626;2023-07-13T13:12:15;0.90;;;0.90;;
13331;SDS011;6735;51.456;12.626;2023-07-13T13:14:41;1.83;;;1.10;;
13331;SDS011;6735;51.456;12.626;2023-07-13T13:17:18;2.33;;;1.50;;
13331;SDS011;6735;51.456;12.626;2023-07-13T13:19:45;2.65;;;1.23;;
13331;SDS011;6735;51.456;12.626;2023-07-13T13:22:12;1.33;;;1.10;;
13331;SDS011;6735;51.456;12.626;2023-07-13T13:24:38;2.00;;;1.00;;
13331;SDS011;6735;51.456;12.626;2023-07-13T13:27:04;1.13;;;1.02;;
13331;SDS011;6735;51.456;12.626;2023-07-13T13:29:31;1.00;;;0.90;;
13331;SDS011;6735;51.456;12.626;2023-07-13T13:31:58;2.00;;;1.33;;
13331;SDS011;6735;51.456;12.626;2023-07-13T13:34:24;0.90;;;0.85;;
13331;SDS011;6735;51.456;12.626;2023-07-13T13:36:51;1.27;;;1.10;;
13331;SDS011;6735;51.456;12.626;2023-07-13T13:39:20;3.28;;;1.38;;
13331;SDS011;6735;51.456;12.626;2023-07-13T13:41:48;2.00;;;1.40;;
13331;SDS011;6735;51.456;12.626;2023-07-13T13:44:15;8.13;;;1.80;;
13331;SDS011;6735;51.456;12.626;2023-07-13T13:46:42;3.80;;;1.33;;
13331;SDS011;6735;51.456;12.626;2023-07-13T13:49:21;1.10;;;1.05;;
13331;SDS011;6735;51.456;12.626;2023-07-13T13:51:50;3.15;;;1.40;;
13331;SDS011;6735;51.456;12.626;2023-07-13T13:54:17;2.42;;;1.10;;
13331;SDS011;6735;51.456;12.626;2023-07-13T13:56:45;3.42;;;1.10;;
13331;SDS011;6735;51.456;12.626;2023-07-13T13:59:12;4.15;;;1.60;;
13331;SDS011;6735;51.456;12.626;2023-07-13T14:01:39;1.52;;;1.08;;
13331;SDS011;6735;51.456;12.626;2023-07-13T14:04:08;1.30;;;1.02;;
13331;SDS011;6735;51.456;12.626;2023-07-13T14:06:39;0.95;;;0.85;;
13331;SDS011;6735;51.456;12.626;2023-07-13T14:09:08;2.17;;;1.67;;
13331;SDS011;6735;51.456;12.626;2023-07-13T14:11:35;1.95;;;1.45;;
13331;SDS011;6735;51.456;12.626;2023-07-13T14:14:01;1.95;;;1.63;;
13331;SDS011;6735;51.456;12.626;2023-07-13T14:16:30;2.88;;;1.35;;
13331;SDS011;6735;51.456;12.626;2023-07-13T14:18:57;1.13;;;1.05;;
13331;SDS011;6735;51.456;12.626;2023-07-13T14:21:24;2.10;;;1.25;;
13331;SDS011;6735;51.456;12.626;2023-07-13T14:23:51;2.33;;;1.40;;
13331;SDS011;6735;51.456;12.626;2023-07-13T14:26:18;1.35;;;1.15;;
13331;SDS011;6735;51.456;12.626;2023-07-13T14:28:52;2.33;;;1.30;;
13331;SDS011;6735;51.456;12.626;2023-07-13T14:31:20;0.90;;;0.88;;
13331;SDS011;6735;51.456;12.626;2023-07-13T14:33:46;1.83;;;1.17;;
13331;SDS011;6735;51.456;12.626;2023-07-13T14:36:20;4.80;;;1.42;;
13331;SDS011;6735;51.456;12.626;2023-07-13T14:38:52;2.30;;;1.20;;
13331;SDS011;6735;51.456;12.626;2023-07-13T14:41:18;2.27;;;1.20;;
13331;SDS011;6735;51.456;12.626;2023-07-13T14:43:45;3.42;;;1.30;;
13331;SDS011;6735;51.456;12.626;2023-07-13T14:46:18;2.53;;;1.40;;
13331;SDS011;6735;51.456;12.626;2023-07-13T14:48:52;1.75;;;1.27;;
13331;SDS011;6735;51.456;12.626;2023-07-13T14:51:24;2.55;;;1.15;;
13331;SDS011;6735;51.456;12.626;2023-07-13T14:53:50;1.85;;;1.25;;
13331;SDS011;6735;51.456;12.626;2023-07-13T14:56:15;2.42;;;1.00;;
13331;SDS011;6735;51.456;12.626;2023-07-13T14:58:42;1.10;;;1.00;;
13331;SDS011;6735;51.456;12.626;2023-07-13T15:01:12;6.47;;;1.65;;
13331;SDS011;6735;51.456;12.626;2023-07-13T15:03:41;2.00;;;1.30;;
13331;SDS011;6735;51.456;12.626;2023-07-13T15:06:11;1.77;;;1.27;;
13331;SDS011;6735;51.456;12.626;2023-07-13T15:08:38;4.43;;;1.47;;
13331;SDS011;6735;51.456;12.626;2023-07-13T15:11:05;3.63;;;1.40;;
13331;SDS011;6735;51.456;12.626;2023-07-13T15:13:32;3.30;;;1.10;;
13331;SDS011;6735;51.456;12.626;2023-07-13T15:15:58;3.50;;;1.13;;
13331;SDS011;6735;51.456;12.626;2023-07-13T15:18:26;2.10;;;1.10;;
13331;SDS011;6735;51.456;12.626;2023-07-13T15:20:53;3.33;;;1.30;;
13331;SDS011;6735;51.456;12.626;2023-07-13T15:23:20;2.00;;;1.37;;